sensor_id;sensor_type;location;lat;lon;timestamp;pressure;altitude;pressure_sealevel;temperature;humidity
8705;BME280;4389;41.932;25.904;2023-04-01T00:00:50;99788.13;;;11.08;89.71
8705;BME280;4389;41.932;25.904;2023-04-01T00:03:18;99783.34;;;11.11;89.13
8705;BME280;4389;41.932;25.904;2023-04-01T00:05:45;99788.53;;;10.95;88.31
8705;BME280;4389;41.932;25.904;2023-04-01T00:08:12;99778.91;;;10.86;89.88
8705;BME280;4389;41.932;25.904;2023-04-01T00:10:40;99780.03;;;10.84;90.06
8705;BME280;4389;41.932;25.904;2023-04-01T00:13:07;99778.19;;;10.76;89.82
8705;BME280;4389;41.932;25.904;2023-04-01T00:15:34;99766.41;;;10.79;89.66
8705;BME280;4389;41.932;25.904;2023-04-01T00:18:01;99766.41;;;10.53;90.40
8705;BME280;4389;41.932;25.904;2023-04-01T00:20:28;99761.44;;;10.50;91.13
8705;BME280;4389;41.932;25.904;2023-04-01T00:22:55;99756.88;;;10.60;90.92
8705;BME280;4389;41.932;25.904;2023-04-01T00:25:23;99757.78;;;10.51;90.07
8705;BME280;4389;41.932;25.904;2023-04-01T00:27:51;99756.94;;;10.51;91.07
8705;BME280;4389;41.932;25.904;2023-04-01T00:30:18;99747.53;;;10.48;90.27
8705;BME280;4389;41.932;25.904;2023-04-01T00:32:45;99742.63;;;10.18;90.07
8705;BME280;4389;41.932;25.904;2023-04-01T00:35:12;99745.09;;;10.02;90.29
8705;BME280;4389;41.932;25.904;2023-04-01T00:37:39;99742.56;;;10.10;91.51
8705;BME280;4389;41.932;25.904;2023-04-01T00:40:07;99731.63;;;10.05;91.19
8705;BME280;4389;41.932;25.904;2023-04-01T00:42:34;99727.81;;;10.08;91.01
8705;BME280;4389;41.932;25.904;2023-04-01T00:45:27;99724.13;;;10.18;91.28
8705;BME280;4389;41.932;25.904;2023-04-01T00:47:54;99723.16;;;10.19;90.70
8705;BME280;4389;41.932;25.904;2023-04-01T00:50:22;99718.84;;;10.18;90.21
8705;BME280;4389;41.932;25.904;2023-04-01T00:52:51;99720.81;;;10.16;89.29
8705;BME280;4389;41.932;25.904;2023-04-01T00:55:20;99724.75;;;10.12;89.03
8705;BME280;4389;41.932;25.904;2023-04-01T00:57:49;99723.31;;;9.73;89.11
8705;BME280;4389;41.932;25.904;2023-04-01T01:00:17;99724.81;;;9.31;91.25
8705;BME280;4389;41.932;25.904;2023-04-01T01:02:46;99715.63;;;9.08;91.26
8705;BME280;4389;41.932;25.904;2023-04-01T01:05:17;99708.41;;;9.10;91.85
8705;BME280;4389;41.932;25.904;2023-04-01T01:07:54;99710.34;;;9.08;92.17
8705;BME280;4389;41.932;25.904;2023-04-01T01:10:30;99713.41;;;9.13;92.23
8705;BME280;4389;41.932;25.904;2023-04-01T01:13:04;99707.72;;;9.08;92.68
8705;BME280;4389;41.932;25.904;2023-04-01T01:15:38;99704.50;;;9.14;93.23
8705;BME280;4389;41.932;25.904;2023-04-01T01:18:15;99695.38;;;9.26;93.02
8705;BME280;4389;41.932;25.904;2023-04-01T01:23:57;99700.88;;;9.15;92.72
8705;BME280;4389;41.932;25.904;2023-04-01T01:26:45;99711.84;;;9.20;93.48
8705;BME280;4389;41.932;25.904;2023-04-01T01:29:34;99707.56;;;8.74;91.63
8705;BME280;4389;41.932;25.904;2023-04-01T01:32:06;99700.69;;;8.54;92.22
8705;BME280;4389;41.932;25.904;2023-04-01T01:34:40;99693.63;;;8.35;92.39
8705;BME280;4389;41.932;25.904;2023-04-01T01:37:15;99701.00;;;8.41;92.56
8705;BME280;4389;41.932;25.904;2023-04-01T01:39:50;99709.44;;;8.35;92.42
8705;BME280;4389;41.932;25.904;2023-04-01T01:42:18;99714.72;;;8.26;92.33
8705;BME280;4389;41.932;25.904;2023-04-01T01:44:47;99713.19;;;8.04;93.52
8705;BME280;4389;41.932;25.904;2023-04-01T01:47:16;99712.91;;;7.98;94.79
8705;BME280;4389;41.932;25.904;2023-04-01T01:49:46;99709.16;;;8.10;94.92
8705;BME280;4389;41.932;25.904;2023-04-01T01:52:14;99707.50;;;8.09;95.10
8705;BME280;4389;41.932;25.904;2023-04-01T01:54:47;99722.50;;;8.27;95.13
8705;BME280;4389;41.932;25.904;2023-04-01T01:57:14;99714.97;;;8.42;95.03
8705;BME280;4389;41.932;25.904;2023-04-01T01:59:43;99719.16;;;8.35;94.60
8705;BME280;4389;41.932;25.904;2023-04-01T02:02:13;99714.41;;;8.48;94.41
8705;BME280;4389;41.932;25.904;2023-04-01T02:04:43;99717.16;;;8.56;94.29
8705;BME280;4389;41.932;25.904;2023-04-01T02:07:15;99728.81;;;8.63;93.79
8705;BME280;4389;41.932;25.904;2023-04-01T02:09:45;99723.63;;;8.80;93.17
8705;BME280;4389;41.932;25.904;2023-04-01T02:12:13;99723.50;;;8.82;92.44
8705;BME280;4389;41.932;25.904;2023-04-01T02:14:45;99724.19;;;8.83;92.37
8705;BME280;4389;41.932;25.904;2023-04-01T02:17:17;99726.25;;;8.89;91.86
8705;BME280;4389;41.932;25.904;2023-04-01T02:19:48;99726.47;;;9.05;91.37
8705;BME280;4389;41.932;25.904;2023-04-01T02:22:20;99719.28;;;8.98;90.90
8705;BME280;4389;41.932;25.904;2023-04-01T02:24:49;99725.13;;;8.92;89.92
8705;BME280;4389;41.932;25.904;2023-04-01T02:27:17;99725.91;;;8.66;89.57
8705;BME280;4389;41.932;25.904;2023-04-01T02:29:44;99733.25;;;8.72;89.77
8705;BME280;4389;41.932;25.904;2023-04-01T02:32:12;99722.19;;;8.59;90.05
8705;BME280;4389;41.932;25.904;2023-04-01T02:34:42;99715.28;;;8.39;90.88
8705;BME280;4389;41.932;25.904;2023-04-01T02:37:10;99701.09;;;8.49;91.36
8705;BME280;4389;41.932;25.904;2023-04-01T02:39:39;99705.25;;;8.52;91.64
8705;BME280;4389;41.932;25.904;2023-04-01T02:42:08;99703.72;;;8.59;91.56
8705;BME280;4389;41.932;25.904;2023-04-01T02:44:36;99684.44;;;8.58;91.81
8705;BME280;4389;41.932;25.904;2023-04-01T02:47:03;99677.88;;;8.72;92.11
8705;BME280;4389;41.932;25.904;2023-04-01T02:49:30;99676.91;;;8.73;91.75
8705;BME280;4389;41.932;25.904;2023-04-01T02:51:56;99670.75;;;8.82;91.89
8705;BME280;4389;41.932;25.904;2023-04-01T02:54:23;99662.25;;;8.88;91.38
8705;BME280;4389;41.932;25.904;2023-04-01T02:56:51;99658.78;;;8.87;90.87
8705;BME280;4389;41.932;25.904;2023-04-01T02:59:18;99663.38;;;8.85;90.75
8705;BME280;4389;41.932;25.904;2023-04-01T03:01:45;99667.50;;;8.61;91.27
8705;BME280;4389;41.932;25.904;2023-04-01T03:04:12;99667.53;;;8.42;92.36
8705;BME280;4389;41.932;25.904;2023-04-01T03:06:38;99662.13;;;8.43;92.64
8705;BME280;4389;41.932;25.904;2023-04-01T03:09:05;99660.03;;;8.47;92.82
8705;BME280;4389;41.932;25.904;2023-04-01T03:11:32;99658.38;;;8.46;92.67
8705;BME280;4389;41.932;25.904;2023-04-01T03:14:00;99667.13;;;8.46;93.00
8705;BME280;4389;41.932;25.904;2023-04-01T03:16:27;99680.03;;;8.40;92.87
8705;BME280;4389;41.932;25.904;2023-04-01T03:18:54;99672.81;;;8.42;92.97
8705;BME280;4389;41.932;25.904;2023-04-01T03:21:24;99669.47;;;8.49;93.16
8705;BME280;4389;41.932;25.904;2023-04-01T03:23:52;99668.59;;;8.68;92.82
8705;BME280;4389;41.932;25.904;2023-04-01T03:26:18;99672.72;;;8.80;92.57
8705;BME280;4389;41.932;25.904;2023-04-01T03:28:47;99665.22;;;8.85;92.55
8705;BME280;4389;41.932;25.904;2023-04-01T03:31:15;99658.09;;;8.85;92.64
8705;BME280;4389;41.932;25.904;2023-04-01T03:33:42;99667.06;;;9.01;92.05
8705;BME280;4389;41.932;25.904;2023-04-01T03:36:09;99664.97;;;9.05;91.34
8705;BME280;4389;41.932;25.904;2023-04-01T03:38:38;99655.63;;;9.10;91.67
8705;BME280;4389;41.932;25.904;2023-04-01T03:41:05;99657.28;;;9.11;92.27
8705;BME280;4389;41.932;25.904;2023-04-01T03:43:32;99658.34;;;9.18;92.42
8705;BME280;4389;41.932;25.904;2023-04-01T03:45:59;99655.00;;;9.26;92.01
8705;BME280;4389;41.932;25.904;2023-04-01T03:48:27;99653.16;;;9.26;91.97
8705;BME280;4389;41.932;25.904;2023-04-01T03:50:55;99641.44;;;9.38;91.05
8705;BME280;4389;41.932;25.904;2023-04-01T03:53:22;99637.72;;;9.31;90.70
8705;BME280;4389;41.932;25.904;2023-04-01T03:55:48;99646.66;;;9.21;91.25
8705;BME280;4389;41.932;25.904;2023-04-01T03:58:17;99633.34;;;9.22;91.20
8705;BME280;4389;41.932;25.904;2023-04-01T04:00:44;99634.88;;;9.42;91.32
8705;BME280;4389;41.932;25.904;2023-04-01T04:03:11;99624.31;;;9.42;90.23
8705;BME280;4389;41.932;25.904;2023-04-01T04:05:46;99613.97;;;9.49;90.80
8705;BME280;4389;41.932;25.904;2023-04-01T04:08:13;99621.09;;;9.48;90.31
8705;BME280;4389;41.932;25.904;2023-04-01T04:10:40;99624.53;;;9.49;90.36
8705;BME280;4389;41.932;25.904;2023-04-01T04:13:07;99632.59;;;9.47;89.66
8705;BME280;4389;41.932;25.904;2023-04-01T04:15:34;99635.41;;;9.63;89.48
8705;BME280;4389;41.932;25.904;2023-04-01T04:18:01;99644.94;;;9.74;89.05
8705;BME280;4389;41.932;25.904;2023-04-01T04:20:27;99645.28;;;9.61;89.30
8705;BME280;4389;41.932;25.904;2023-04-01T04:22:56;99639.41;;;9.67;89.15
8705;BME280;4389;41.932;25.904;2023-04-01T04:25:22;99627.56;;;9.71;88.91
8705;BME280;4389;41.932;25.904;2023-04-01T04:27:49;99619.84;;;9.43;90.19
8705;BME280;4389;41.932;25.904;2023-04-01T04:30:16;99636.81;;;9.40;90.05
8705;BME280;4389;41.932;25.904;2023-04-01T04:32:43;99628.38;;;9.54;90.82
8705;BME280;4389;41.932;25.904;2023-04-01T04:35:10;99642.13;;;9.58;90.07
8705;BME280;4389;41.932;25.904;2023-04-01T04:37:37;99645.75;;;9.57;90.12
8705;BME280;4389;41.932;25.904;2023-04-01T04:40:07;99640.69;;;9.46;89.86
8705;BME280;4389;41.932;25.904;2023-04-01T04:42:34;99636.69;;;9.59;90.64
8705;BME280;4389;41.932;25.904;2023-04-01T04:45:01;99645.75;;;9.74;90.12
8705;BME280;4389;41.932;25.904;2023-04-01T04:47:27;99648.47;;;9.82;89.58
8705;BME280;4389;41.932;25.904;2023-04-01T04:49:54;99645.81;;;10.00;90.28
8705;BME280;4389;41.932;25.904;2023-04-01T04:52:21;99647.78;;;10.15;88.71
8705;BME280;4389;41.932;25.904;2023-04-01T04:54:48;99653.78;;;10.25;87.76
8705;BME280;4389;41.932;25.904;2023-04-01T04:57:16;99643.50;;;10.40;88.40
8705;BME280;4389;41.932;25.904;2023-04-01T04:59:43;99657.25;;;10.43;87.80
8705;BME280;4389;41.932;25.904;2023-04-01T05:02:10;99658.63;;;10.30;88.82
8705;BME280;4389;41.932;25.904;2023-04-01T05:04:37;99649.56;;;10.32;89.03
8705;BME280;4389;41.932;25.904;2023-04-01T05:07:04;99646.91;;;10.32;87.90
8705;BME280;4389;41.932;25.904;2023-04-01T05:09:30;99641.75;;;10.23;88.60
8705;BME280;4389;41.932;25.904;2023-04-01T05:11:58;99644.69;;;10.45;87.66
8705;BME280;4389;41.932;25.904;2023-04-01T05:14:26;99635.63;;;10.48;86.12
8705;BME280;4389;41.932;25.904;2023-04-01T05:16:53;99631.56;;;10.61;87.24
8705;BME280;4389;41.932;25.904;2023-04-01T05:19:20;99626.66;;;10.74;85.99
8705;BME280;4389;41.932;25.904;2023-04-01T05:21:47;99623.25;;;10.82;84.77
8705;BME280;4389;41.932;25.904;2023-04-01T05:24:14;99630.25;;;10.99;84.02
8705;BME280;4389;41.932;25.904;2023-04-01T05:26:41;99619.28;;;11.35;84.04
8705;BME280;4389;41.932;25.904;2023-04-01T05:29:08;99628.00;;;11.77;82.86
8705;BME280;4389;41.932;25.904;2023-04-01T05:31:36;99620.03;;;12.09;80.64
8705;BME280;4389;41.932;25.904;2023-04-01T05:34:03;99612.88;;;12.42;80.28
8705;BME280;4389;41.932;25.904;2023-04-01T05:36:30;99611.66;;;12.60;78.24
8705;BME280;4389;41.932;25.904;2023-04-01T05:38:56;99592.91;;;12.70;78.35
8705;BME280;4389;41.932;25.904;2023-04-01T05:41:23;99594.59;;;12.63;78.63
8705;BME280;4389;41.932;25.904;2023-04-01T05:43:50;99597.84;;;12.26;80.23
8705;BME280;4389;41.932;25.904;2023-04-01T05:46:17;99598.69;;;11.95;81.65
8705;BME280;4389;41.932;25.904;2023-04-01T05:48:45;99604.16;;;12.01;82.16
8705;BME280;4389;41.932;25.904;2023-04-01T05:51:13;99603.50;;;11.99;82.40
8705;BME280;4389;41.932;25.904;2023-04-01T05:53:40;99600.19;;;12.05;82.52
8705;BME280;4389;41.932;25.904;2023-04-01T05:56:07;99592.22;;;11.97;82.43
8705;BME280;4389;41.932;25.904;2023-04-01T05:58:35;99596.22;;;11.77;84.04
8705;BME280;4389;41.932;25.904;2023-04-01T06:01:02;99592.88;;;11.99;82.87
8705;BME280;4389;41.932;25.904;2023-04-01T06:03:29;99592.84;;;12.23;82.56
8705;BME280;4389;41.932;25.904;2023-04-01T06:05:58;99597.06;;;12.64;82.58
8705;BME280;4389;41.932;25.904;2023-04-01T06:08:27;99603.50;;;12.78;80.52
8705;BME280;4389;41.932;25.904;2023-04-01T06:11:04;99596.28;;;13.02;79.83
8705;BME280;4389;41.932;25.904;2023-04-01T06:13:59;99588.06;;;13.20;79.17
8705;BME280;4389;41.932;25.904;2023-04-01T06:16:39;99598.38;;;13.45;78.82
8705;BME280;4389;41.932;25.904;2023-04-01T06:19:22;99595.09;;;13.66;78.27
8705;BME280;4389;41.932;25.904;2023-04-01T06:25:05;99600.72;;;14.30;76.35
8705;BME280;4389;41.932;25.904;2023-04-01T06:27:52;99593.94;;;14.42;75.58
8705;BME280;4389;41.932;25.904;2023-04-01T06:30:33;99597.97;;;14.38;77.02
8705;BME280;4389;41.932;25.904;2023-04-01T06:33:15;99609.19;;;14.48;77.75
8705;BME280;4389;41.932;25.904;2023-04-01T06:36:06;99601.56;;;14.59;77.87
8705;BME280;4389;41.932;25.904;2023-04-01T06:38:48;99602.97;;;14.70;77.92
8705;BME280;4389;41.932;25.904;2023-04-01T06:41:47;99600.09;;;14.86;77.28
8705;BME280;4389;41.932;25.904;2023-04-01T06:44:23;99598.97;;;14.95;77.65
8705;BME280;4389;41.932;25.904;2023-04-01T06:46:58;99589.97;;;15.10;77.63
8705;BME280;4389;41.932;25.904;2023-04-01T06:49:37;99585.88;;;15.43;77.12
8705;BME280;4389;41.932;25.904;2023-04-01T06:52:13;99589.28;;;15.23;77.70
8705;BME280;4389;41.932;25.904;2023-04-01T06:54:47;99582.88;;;15.17;78.14
8705;BME280;4389;41.932;25.904;2023-04-01T06:57:22;99575.84;;;15.10;79.48
8705;BME280;4389;41.932;25.904;2023-04-01T06:59:51;99563.31;;;15.10;79.89
8705;BME280;4389;41.932;25.904;2023-04-01T07:02:26;99550.72;;;15.19;79.68
8705;BME280;4389;41.932;25.904;2023-04-01T07:04:58;99558.94;;;14.88;81.06
8705;BME280;4389;41.932;25.904;2023-04-01T07:07:30;99555.63;;;15.01;81.16
8705;BME280;4389;41.932;25.904;2023-04-01T07:10:05;99552.25;;;14.78;82.23
8705;BME280;4389;41.932;25.904;2023-04-01T07:12:41;99545.81;;;14.87;82.79
8705;BME280;4389;41.932;25.904;2023-04-01T07:15:16;99544.09;;;15.15;81.51
8705;BME280;4389;41.932;25.904;2023-04-01T07:17:46;99539.66;;;15.22;81.93
8705;BME280;4389;41.932;25.904;2023-04-01T07:20:20;99538.03;;;15.21;81.52
8705;BME280;4389;41.932;25.904;2023-04-01T07:22:50;99539.44;;;15.17;82.57
8705;BME280;4389;41.932;25.904;2023-04-01T07:25:22;99536.88;;;15.30;81.65
8705;BME280;4389;41.932;25.904;2023-04-01T07:27:52;99537.06;;;15.43;81.17
8705;BME280;4389;41.932;25.904;2023-04-01T07:30:21;99528.56;;;15.75;80.93
8705;BME280;4389;41.932;25.904;2023-04-01T07:32:52;99532.28;;;16.08;79.70
8705;BME280;4389;41.932;25.904;2023-04-01T07:35:26;99524.13;;;16.16;79.79
8705;BME280;4389;41.932;25.904;2023-04-01T07:38:06;99515.00;;;16.59;77.72
8705;BME280;4389;41.932;25.904;2023-04-01T07:40:45;99509.25;;;16.55;78.73
8705;BME280;4389;41.932;25.904;2023-04-01T07:43:32;99512.47;;;16.51;78.49
8705;BME280;4389;41.932;25.904;2023-04-01T07:46:12;99502.78;;;16.84;78.30
8705;BME280;4389;41.932;25.904;2023-04-01T07:48:46;99495.91;;;17.09;77.32
8705;BME280;4389;41.932;25.904;2023-04-01T07:51:22;99496.22;;;16.93;76.60
8705;BME280;4389;41.932;25.904;2023-04-01T07:54:00;99498.22;;;16.71;77.37
8705;BME280;4389;41.932;25.904;2023-04-01T07:56:35;99497.81;;;16.74;78.23
8705;BME280;4389;41.932;25.904;2023-04-01T07:59:09;99488.94;;;16.67;78.18
8705;BME280;4389;41.932;25.904;2023-04-01T08:01:48;99477.09;;;16.89;77.87
8705;BME280;4389;41.932;25.904;2023-04-01T08:04:25;99474.97;;;16.72;78.96
8705;BME280;4389;41.932;25.904;2023-04-01T08:06:59;99457.06;;;16.66;79.97
8705;BME280;4389;41.932;25.904;2023-04-01T08:09:40;99440.03;;;16.67;79.57
8705;BME280;4389;41.932;25.904;2023-04-01T08:12:20;99442.72;;;16.67;80.19
8705;BME280;4389;41.932;25.904;2023-04-01T08:14:57;99435.31;;;16.69;79.80
8705;BME280;4389;41.932;25.904;2023-04-01T08:17:32;99437.81;;;16.83;79.52
8705;BME280;4389;41.932;25.904;2023-04-01T08:20:14;99430.06;;;17.08;79.19
8705;BME280;4389;41.932;25.904;2023-04-01T08:22:48;99432.56;;;17.29;77.62
8705;BME280;4389;41.932;25.904;2023-04-01T08:25:22;99423.75;;;17.48;77.25
8705;BME280;4389;41.932;25.904;2023-04-01T08:27:55;99416.53;;;17.61;76.73
8705;BME280;4389;41.932;25.904;2023-04-01T08:30:24;99403.34;;;17.86;75.58
8705;BME280;4389;41.932;25.904;2023-04-01T08:32:55;99388.06;;;18.06;75.78
8705;BME280;4389;41.932;25.904;2023-04-01T08:35:29;99381.84;;;18.25;74.14
8705;BME280;4389;41.932;25.904;2023-04-01T08:38:04;99378.50;;;18.29;74.10
8705;BME280;4389;41.932;25.904;2023-04-01T08:41:00;99378.66;;;18.54;73.70
8705;BME280;4389;41.932;25.904;2023-04-01T08:43:55;99361.47;;;18.61;72.88
8705;BME280;4389;41.932;25.904;2023-04-01T08:46:40;99358.56;;;18.69;73.04
8705;BME280;4389;41.932;25.904;2023-04-01T08:49:23;99351.09;;;19.08;72.52
8705;BME280;4389;41.932;25.904;2023-04-01T08:52:13;99359.72;;;19.84;70.90
8705;BME280;4389;41.932;25.904;2023-04-01T08:55:12;99354.28;;;20.44;67.83
8705;BME280;4389;41.932;25.904;2023-04-01T08:57:50;99366.44;;;20.76;65.66
8705;BME280;4389;41.932;25.904;2023-04-01T09:00:27;99358.63;;;20.75;64.87
8705;BME280;4389;41.932;25.904;2023-04-01T09:03:21;99355.97;;;20.86;58.08
8705;BME280;4389;41.932;25.904;2023-04-01T09:06:26;99359.25;;;21.29;57.13
8705;BME280;4389;41.932;25.904;2023-04-01T09:09:17;99349.03;;;21.08;57.50
8705;BME280;4389;41.932;25.904;2023-04-01T09:12:18;99354.75;;;21.00;57.63
8705;BME280;4389;41.932;25.904;2023-04-01T09:21:08;99326.06;;;20.94;58.21
8705;BME280;4389;41.932;25.904;2023-04-01T09:23:53;99324.47;;;21.16;57.28
8705;BME280;4389;41.932;25.904;2023-04-01T09:26:38;99320.59;;;21.12;57.52
8705;BME280;4389;41.932;25.904;2023-04-01T09:29:18;99316.63;;;21.15;57.62
8705;BME280;4389;41.932;25.904;2023-04-01T09:32:07;99307.81;;;20.96;57.93
8705;BME280;4389;41.932;25.904;2023-04-01T09:34:51;99311.22;;;20.62;58.46
8705;BME280;4389;41.932;25.904;2023-04-01T09:37:20;99309.47;;;20.97;58.21
8705;BME280;4389;41.932;25.904;2023-04-01T09:40:02;99316.84;;;21.13;57.11
8705;BME280;4389;41.932;25.904;2023-04-01T09:42:49;99293.72;;;21.47;56.24
8705;BME280;4389;41.932;25.904;2023-04-01T09:45:35;99304.72;;;21.57;55.19
8705;BME280;4389;41.932;25.904;2023-04-01T09:48:18;99294.75;;;21.34;55.36
8705;BME280;4389;41.932;25.904;2023-04-01T09:50:57;99298.16;;;20.77;56.30
8705;BME280;4389;41.932;25.904;2023-04-01T09:53:46;99292.53;;;21.20;55.21
8705;BME280;4389;41.932;25.904;2023-04-01T10:02:38;99281.56;;;21.67;52.79
8705;BME280;4389;41.932;25.904;2023-04-01T10:17:53;99234.84;;;21.27;54.30
8705;BME280;4389;41.932;25.904;2023-04-01T10:20:56;99225.22;;;20.85;54.39
8705;BME280;4389;41.932;25.904;2023-04-01T10:23:52;99243.88;;;20.57;54.48
8705;BME280;4389;41.932;25.904;2023-04-01T10:26:38;99217.63;;;20.41;54.21
8705;BME280;4389;41.932;25.904;2023-04-01T10:39:20;99215.69;;;20.07;56.99
8705;BME280;4389;41.932;25.904;2023-04-01T10:42:20;99211.19;;;20.01;57.15
8705;BME280;4389;41.932;25.904;2023-04-01T10:45:32;99192.13;;;20.03;57.49
8705;BME280;4389;41.932;25.904;2023-04-01T10:48:21;99213.25;;;19.99;57.87
8705;BME280;4389;41.932;25.904;2023-04-01T10:51:14;99225.66;;;20.00;58.50
8705;BME280;4389;41.932;25.904;2023-04-01T10:54:08;99210.31;;;20.07;57.48
8705;BME280;4389;41.932;25.904;2023-04-01T10:56:46;99202.31;;;20.30;57.32
8705;BME280;4389;41.932;25.904;2023-04-01T11:09:24;99187.56;;;20.85;54.97
8705;BME280;4389;41.932;25.904;2023-04-01T11:12:22;99176.91;;;20.79;54.95
8705;BME280;4389;41.932;25.904;2023-04-01T11:15:24;99169.31;;;20.64;55.52
8705;BME280;4389;41.932;25.904;2023-04-01T11:21:22;99171.81;;;21.00;55.17
8705;BME280;4389;41.932;25.904;2023-04-01T11:24:27;99165.84;;;20.87;54.98
8705;BME280;4389;41.932;25.904;2023-04-01T11:27:09;99164.75;;;20.65;55.89
8705;BME280;4389;41.932;25.904;2023-04-01T11:30:01;99165.66;;;20.47;56.11
8705;BME280;4389;41.932;25.904;2023-04-01T11:32:42;99147.75;;;20.41;55.90
8705;BME280;4389;41.932;25.904;2023-04-01T11:35:42;99142.50;;;20.35;56.17
8705;BME280;4389;41.932;25.904;2023-04-01T11:38:23;99133.38;;;20.36;56.29
8705;BME280;4389;41.932;25.904;2023-04-01T11:40:59;99125.19;;;20.31;56.48
8705;BME280;4389;41.932;25.904;2023-04-01T11:43:32;99120.78;;;20.36;56.30
8705;BME280;4389;41.932;25.904;2023-04-01T11:46:10;99109.00;;;20.49;55.44
8705;BME280;4389;41.932;25.904;2023-04-01T11:51:33;99089.22;;;20.32;55.41
8705;BME280;4389;41.932;25.904;2023-04-01T11:54:14;99082.91;;;20.38;55.45
8705;BME280;4389;41.932;25.904;2023-04-01T11:57:03;99080.47;;;20.36;56.05
8705;BME280;4389;41.932;25.904;2023-04-01T12:02:40;99051.63;;;20.43;55.97
8705;BME280;4389;41.932;25.904;2023-04-01T12:05:33;99073.22;;;20.48;55.62
8705;BME280;4389;41.932;25.904;2023-04-01T12:08:19;99059.41;;;20.56;55.83
8705;BME280;4389;41.932;25.904;2023-04-01T12:10:55;99038.50;;;20.58;55.14
8705;BME280;4389;41.932;25.904;2023-04-01T12:13:32;99043.97;;;20.63;56.18
8705;BME280;4389;41.932;25.904;2023-04-01T12:16:11;99029.16;;;20.72;55.47
8705;BME280;4389;41.932;25.904;2023-04-01T12:18:47;99043.97;;;20.63;55.35
8705;BME280;4389;41.932;25.904;2023-04-01T12:21:24;99032.28;;;20.69;55.82
8705;BME280;4389;41.932;25.904;2023-04-01T12:27:20;99019.78;;;20.75;54.17
8705;BME280;4389;41.932;25.904;2023-04-01T12:30:17;99009.72;;;20.82;54.76
8705;BME280;4389;41.932;25.904;2023-04-01T12:32:54;99015.44;;;20.85;55.31
8705;BME280;4389;41.932;25.904;2023-04-01T12:35:39;99021.47;;;21.15;53.71
8705;BME280;4389;41.932;25.904;2023-04-01T12:38:19;99018.72;;;21.55;52.58
8705;BME280;4389;41.932;25.904;2023-04-01T12:41:05;99006.69;;;21.90;51.71
8705;BME280;4389;41.932;25.904;2023-04-01T12:46:41;98994.72;;;22.14;50.30
8705;BME280;4389;41.932;25.904;2023-04-01T12:49:28;98988.03;;;22.00;50.07
8705;BME280;4389;41.932;25.904;2023-04-01T12:52:12;98996.81;;;22.12;50.43
8705;BME280;4389;41.932;25.904;2023-04-01T12:55:06;98983.72;;;22.37;50.19
8705;BME280;4389;41.932;25.904;2023-04-01T13:00:46;98980.50;;;22.02;49.66
8705;BME280;4389;41.932;25.904;2023-04-01T13:03:31;98977.47;;;22.15;49.99
8705;BME280;4389;41.932;25.904;2023-04-01T13:06:32;98972.09;;;22.15;49.29
8705;BME280;4389;41.932;25.904;2023-04-01T13:09:16;98973.94;;;22.31;48.53
8705;BME280;4389;41.932;25.904;2023-04-01T13:12:01;98982.56;;;22.33;48.43
8705;BME280;4389;41.932;25.904;2023-04-01T13:14:50;98973.53;;;22.23;47.44
8705;BME280;4389;41.932;25.904;2023-04-01T13:17:25;98972.81;;;22.27;47.41
8705;BME280;4389;41.932;25.904;2023-04-01T13:20:01;98976.97;;;22.18;48.15
8705;BME280;4389;41.932;25.904;2023-04-01T13:22:41;98971.13;;;22.05;48.52
8705;BME280;4389;41.932;25.904;2023-04-01T13:25:23;98972.63;;;22.34;48.13
8705;BME280;4389;41.932;25.904;2023-04-01T13:27:56;98968.66;;;22.41;48.04
8705;BME280;4389;41.932;25.904;2023-04-01T13:30:30;98965.53;;;22.44;47.22
8705;BME280;4389;41.932;25.904;2023-04-01T13:33:02;98956.72;;;22.70;46.10
8705;BME280;4389;41.932;25.904;2023-04-01T13:35:37;98942.88;;;22.45;46.32
8705;BME280;4389;41.932;25.904;2023-04-01T13:41:22;98910.56;;;22.12;47.90
8705;BME280;4389;41.932;25.904;2023-04-01T13:44:00;98923.69;;;21.87;47.38
8705;BME280;4389;41.932;25.904;2023-04-01T13:46:44;98896.34;;;21.79;48.47
8705;BME280;4389;41.932;25.904;2023-04-01T13:49:44;98871.59;;;21.65;48.40
8705;BME280;4389;41.932;25.904;2023-04-01T13:52:30;98883.59;;;21.41;48.84
8705;BME280;4389;41.932;25.904;2023-04-01T13:55:19;98884.63;;;21.24;49.67
8705;BME280;4389;41.932;25.904;2023-04-01T14:00:54;98879.13;;;21.30;49.20
8705;BME280;4389;41.932;25.904;2023-04-01T14:03:29;98874.84;;;21.34;48.63
8705;BME280;4389;41.932;25.904;2023-04-01T14:06:13;98852.22;;;21.47;48.31
8705;BME280;4389;41.932;25.904;2023-04-01T14:08:55;98870.13;;;21.58;49.27
8705;BME280;4389;41.932;25.904;2023-04-01T14:11:35;98853.19;;;21.41;49.63
8705;BME280;4389;41.932;25.904;2023-04-01T14:14:14;98865.66;;;21.30;49.87
8705;BME280;4389;41.932;25.904;2023-04-01T14:17:06;98849.91;;;21.22;49.85
8705;BME280;4389;41.932;25.904;2023-04-01T14:19:51;98845.34;;;21.06;50.28
8705;BME280;4389;41.932;25.904;2023-04-01T14:22:29;98834.41;;;21.13;49.90
8705;BME280;4389;41.932;25.904;2023-04-01T14:25:26;98846.97;;;21.07;50.13
8705;BME280;4389;41.932;25.904;2023-04-01T14:28:06;98860.66;;;21.06;50.75
8705;BME280;4389;41.932;25.904;2023-04-01T14:30:42;98852.03;;;21.04;50.83
8705;BME280;4389;41.932;25.904;2023-04-01T14:33:21;98859.47;;;20.85;51.93
8705;BME280;4389;41.932;25.904;2023-04-01T14:35:59;98820.66;;;20.81;51.69
8705;BME280;4389;41.932;25.904;2023-04-01T14:38:39;98851.63;;;20.84;51.93
8705;BME280;4389;41.932;25.904;2023-04-01T14:41:20;98835.16;;;20.80;51.84
8705;BME280;4389;41.932;25.904;2023-04-01T14:43:55;98831.59;;;20.91;51.69
8705;BME280;4389;41.932;25.904;2023-04-01T14:46:39;98818.75;;;20.93;51.64
8705;BME280;4389;41.932;25.904;2023-04-01T14:49:20;98836.53;;;20.94;51.60
8705;BME280;4389;41.932;25.904;2023-04-01T14:51:50;98854.63;;;21.15;51.48
8705;BME280;4389;41.932;25.904;2023-04-01T14:54:21;98843.88;;;21.15;51.31
8705;BME280;4389;41.932;25.904;2023-04-01T14:57:05;98850.44;;;20.91;52.11
8705;BME280;4389;41.932;25.904;2023-04-01T14:59:39;98859.31;;;20.64;52.61
8705;BME280;4389;41.932;25.904;2023-04-01T15:02:25;98889.31;;;20.44;53.36
8705;BME280;4389;41.932;25.904;2023-04-01T15:04:58;98922.38;;;20.33;53.66
8705;BME280;4389;41.932;25.904;2023-04-01T15:07:59;98974.16;;;20.17;53.83
8705;BME280;4389;41.932;25.904;2023-04-01T15:13:47;98999.66;;;19.85;56.48
8705;BME280;4389;41.932;25.904;2023-04-01T15:16:25;99058.66;;;19.15;58.47
8705;BME280;4389;41.932;25.904;2023-04-01T15:19:01;99042.09;;;18.04;64.24